Terminal Aerodrome Forecast
Issued by NWS Jackson, MS

Home | Current Version | Previous Version | Text Only | Print | Product List | Glossary On
Versions: 1 2 3 4 5 6 7 8 9 10 11 12 13 14
771
FTUS44 KJAN 270520
TAFMEI
TAF
KMEI 270520Z 2706/2806 18005KT P6SM OVC250
     FM271000 00000KT 4SM BR OVC015
     FM271400 17004KT P6SM OVC025
     FM271600 16011G17KT P6SM BKN035
     FM280000 17006KT P6SM BKN250=

USA.gov is the U.S. government's official web portal to all federal, state and local government web resources and services.